sensor_id;sensor_type;location;lat;lon;timestamp;P1;durP1;ratioP1;P2;durP2;ratioP2
2728;SDS011;1372;47.956;7.830;2023-10-08T00:01:19;2.57;;;2.13;;
2728;SDS011;1372;47.956;7.830;2023-10-08T00:03:51;3.20;;;1.80;;
2728;SDS011;1372;47.956;7.830;2023-10-08T00:06:25;5.73;;;2.70;;
2728;SDS011;1372;47.956;7.830;2023-10-08T00:08:56;4.80;;;1.83;;
2728;SDS011;1372;47.956;7.830;2023-10-08T00:11:27;4.27;;;2.20;;
2728;SDS011;1372;47.956;7.830;2023-10-08T00:13:57;4.80;;;1.90;;
2728;SDS011;1372;47.956;7.830;2023-10-08T00:16:30;2.70;;;1.80;;
2728;SDS011;1372;47.956;7.830;2023-10-08T00:19:00;3.30;;;2.23;;
2728;SDS011;1372;47.956;7.830;2023-10-08T00:21:35;4.00;;;1.57;;
2728;SDS011;1372;47.956;7.830;2023-10-08T00:24:06;4.00;;;1.87;;
2728;SDS011;1372;47.956;7.830;2023-10-08T00:26:38;8.60;;;2.13;;
2728;SDS011;1372;47.956;7.830;2023-10-08T00:29:08;3.33;;;2.07;;
2728;SDS011;1372;47.956;7.830;2023-10-08T00:31:43;4.00;;;1.87;;
2728;SDS011;1372;47.956;7.830;2023-10-08T00:34:15;4.50;;;2.33;;
2728;SDS011;1372;47.956;7.830;2023-10-08T00:36:46;5.03;;;2.00;;
2728;SDS011;1372;47.956;7.830;2023-10-08T00:39:17;2.90;;;1.90;;
2728;SDS011;1372;47.956;7.830;2023-10-08T00:41:51;5.20;;;2.43;;
2728;SDS011;1372;47.956;7.830;2023-10-08T00:44:26;3.73;;;2.43;;
2728;SDS011;1372;47.956;7.830;2023-10-08T00:46:57;3.77;;;2.13;;
2728;SDS011;1372;47.956;7.830;2023-10-08T00:49:28;4.17;;;2.00;;
2728;SDS011;1372;47.956;7.830;2023-10-08T00:52:15;4.07;;;2.00;;
2728;SDS011;1372;47.956;7.830;2023-10-08T00:55:05;4.07;;;1.67;;
2728;SDS011;1372;47.956;7.830;2023-10-08T00:57:43;5.00;;;2.00;;
2728;SDS011;1372;47.956;7.830;2023-10-08T01:00:15;4.60;;;2.10;;
2728;SDS011;1372;47.956;7.830;2023-10-08T01:02:48;4.63;;;2.10;;
2728;SDS011;1372;47.956;7.830;2023-10-08T01:05:27;2.93;;;2.00;;
2728;SDS011;1372;47.956;7.830;2023-10-08T01:08:10;4.47;;;2.23;;
2728;SDS011;1372;47.956;7.830;2023-10-08T01:10:46;6.47;;;2.30;;
2728;SDS011;1372;47.956;7.830;2023-10-08T01:13:25;3.03;;;1.93;;
2728;SDS011;1372;47.956;7.830;2023-10-08T01:15:59;3.17;;;1.90;;
2728;SDS011;1372;47.956;7.830;2023-10-08T01:18:29;4.20;;;2.00;;
2728;SDS011;1372;47.956;7.830;2023-10-08T01:21:01;3.00;;;1.87;;
2728;SDS011;1372;47.956;7.830;2023-10-08T01:23:39;4.27;;;2.30;;
2728;SDS011;1372;47.956;7.830;2023-10-08T01:26:09;4.10;;;2.20;;
2728;SDS011;1372;47.956;7.830;2023-10-08T01:28:39;4.13;;;2.50;;
2728;SDS011;1372;47.956;7.830;2023-10-08T01:31:10;4.30;;;2.30;;
2728;SDS011;1372;47.956;7.830;2023-10-08T01:33:42;4.00;;;2.10;;
2728;SDS011;1372;47.956;7.830;2023-10-08T01:36:16;2.90;;;1.93;;
2728;SDS011;1372;47.956;7.830;2023-10-08T01:38:47;5.63;;;1.73;;
2728;SDS011;1372;47.956;7.830;2023-10-08T01:41:16;4.10;;;2.00;;
2728;SDS011;1372;47.956;7.830;2023-10-08T01:43:49;3.57;;;2.30;;
2728;SDS011;1372;47.956;7.830;2023-10-08T01:46:19;3.97;;;1.90;;
2728;SDS011;1372;47.956;7.830;2023-10-08T01:48:49;3.30;;;2.00;;
2728;SDS011;1372;47.956;7.830;2023-10-08T01:51:24;5.20;;;2.37;;
2728;SDS011;1372;47.956;7.830;2023-10-08T01:54:05;2.23;;;1.70;;
2728;SDS011;1372;47.956;7.830;2023-10-08T01:56:38;3.97;;;1.97;;
2728;SDS011;1372;47.956;7.830;2023-10-08T01:59:09;4.47;;;2.20;;
2728;SDS011;1372;47.956;7.830;2023-10-08T02:01:41;6.50;;;1.77;;
2728;SDS011;1372;47.956;7.830;2023-10-08T02:04:10;4.20;;;1.93;;
2728;SDS011;1372;47.956;7.830;2023-10-08T02:06:40;3.37;;;2.00;;
2728;SDS011;1372;47.956;7.830;2023-10-08T02:09:10;5.10;;;2.57;;
2728;SDS011;1372;47.956;7.830;2023-10-08T02:11:46;3.37;;;2.50;;
2728;SDS011;1372;47.956;7.830;2023-10-08T02:14:17;6.50;;;2.33;;
2728;SDS011;1372;47.956;7.830;2023-10-08T02:16:49;5.33;;;2.17;;
2728;SDS011;1372;47.956;7.830;2023-10-08T02:19:22;4.73;;;2.00;;
2728;SDS011;1372;47.956;7.830;2023-10-08T02:21:55;4.70;;;2.00;;
2728;SDS011;1372;47.956;7.830;2023-10-08T02:24:26;3.63;;;1.77;;
2728;SDS011;1372;47.956;7.830;2023-10-08T02:26:59;5.63;;;2.27;;
2728;SDS011;1372;47.956;7.830;2023-10-08T02:29:30;4.77;;;2.47;;
2728;SDS011;1372;47.956;7.830;2023-10-08T02:31:59;5.40;;;2.20;;
2728;SDS011;1372;47.956;7.830;2023-10-08T02:34:28;4.00;;;1.80;;
2728;SDS011;1372;47.956;7.830;2023-10-08T02:36:57;3.63;;;2.20;;
2728;SDS011;1372;47.956;7.830;2023-10-08T02:39:27;4.10;;;1.90;;
2728;SDS011;1372;47.956;7.830;2023-10-08T02:41:57;3.60;;;1.80;;
2728;SDS011;1372;47.956;7.830;2023-10-08T02:44:27;3.67;;;1.77;;
2728;SDS011;1372;47.956;7.830;2023-10-08T02:46:57;7.53;;;2.00;;
2728;SDS011;1372;47.956;7.830;2023-10-08T02:49:27;3.90;;;2.70;;
2728;SDS011;1372;47.956;7.830;2023-10-08T02:51:58;2.90;;;2.20;;
2728;SDS011;1372;47.956;7.830;2023-10-08T02:54:32;3.00;;;2.07;;
2728;SDS011;1372;47.956;7.830;2023-10-08T02:57:03;4.70;;;1.80;;
2728;SDS011;1372;47.956;7.830;2023-10-08T02:59:37;3.40;;;2.33;;
2728;SDS011;1372;47.956;7.830;2023-10-08T03:02:09;5.30;;;2.17;;
2728;SDS011;1372;47.956;7.830;2023-10-08T03:04:43;6.33;;;2.50;;
2728;SDS011;1372;47.956;7.830;2023-10-08T03:07:15;3.33;;;1.90;;
2728;SDS011;1372;47.956;7.830;2023-10-08T03:09:53;2.40;;;1.90;;
2728;SDS011;1372;47.956;7.830;2023-10-08T03:12:31;3.63;;;1.93;;
2728;SDS011;1372;47.956;7.830;2023-10-08T03:15:00;4.20;;;1.90;;
2728;SDS011;1372;47.956;7.830;2023-10-08T03:17:39;5.00;;;2.03;;
2728;SDS011;1372;47.956;7.830;2023-10-08T03:20:16;4.43;;;2.37;;
2728;SDS011;1372;47.956;7.830;2023-10-08T03:23:08;3.90;;;2.23;;
2728;SDS011;1372;47.956;7.830;2023-10-08T03:25:53;7.70;;;3.73;;
2728;SDS011;1372;47.956;7.830;2023-10-08T03:28:26;4.63;;;2.40;;
2728;SDS011;1372;47.956;7.830;2023-10-08T03:30:55;3.90;;;2.27;;
2728;SDS011;1372;47.956;7.830;2023-10-08T03:33:31;8.63;;;2.27;;
2728;SDS011;1372;47.956;7.830;2023-10-08T03:36:04;3.20;;;1.93;;
2728;SDS011;1372;47.956;7.830;2023-10-08T03:38:41;5.40;;;2.40;;
2728;SDS011;1372;47.956;7.830;2023-10-08T03:41:18;4.53;;;2.30;;
2728;SDS011;1372;47.956;7.830;2023-10-08T03:43:55;4.97;;;2.33;;
2728;SDS011;1372;47.956;7.830;2023-10-08T03:46:31;2.80;;;1.70;;
2728;SDS011;1372;47.956;7.830;2023-10-08T03:49:06;3.97;;;2.37;;
2728;SDS011;1372;47.956;7.830;2023-10-08T03:51:42;6.50;;;2.77;;
2728;SDS011;1372;47.956;7.830;2023-10-08T03:54:11;5.70;;;1.93;;
2728;SDS011;1372;47.956;7.830;2023-10-08T03:56:48;4.03;;;2.30;;
2728;SDS011;1372;47.956;7.830;2023-10-08T03:59:18;4.77;;;2.40;;
2728;SDS011;1372;47.956;7.830;2023-10-08T04:01:58;6.40;;;3.33;;
2728;SDS011;1372;47.956;7.830;2023-10-08T04:04:41;4.40;;;2.10;;
2728;SDS011;1372;47.956;7.830;2023-10-08T04:07:20;5.47;;;2.43;;
2728;SDS011;1372;47.956;7.830;2023-10-08T04:09:55;4.17;;;2.00;;
2728;SDS011;1372;47.956;7.830;2023-10-08T04:12:55;7.20;;;2.37;;
2728;SDS011;1372;47.956;7.830;2023-10-08T04:15:24;2.73;;;1.77;;
2728;SDS011;1372;47.956;7.830;2023-10-08T04:17:54;4.50;;;1.80;;
2728;SDS011;1372;47.956;7.830;2023-10-08T04:20:24;6.53;;;3.50;;
2728;SDS011;1372;47.956;7.830;2023-10-08T04:23:06;7.27;;;2.40;;
2728;SDS011;1372;47.956;7.830;2023-10-08T04:25:41;5.73;;;2.93;;
2728;SDS011;1372;47.956;7.830;2023-10-08T04:28:12;4.37;;;2.40;;
2728;SDS011;1372;47.956;7.830;2023-10-08T04:30:47;5.43;;;2.17;;
2728;SDS011;1372;47.956;7.830;2023-10-08T04:33:20;4.20;;;1.50;;
2728;SDS011;1372;47.956;7.830;2023-10-08T04:35:50;4.67;;;2.30;;
2728;SDS011;1372;47.956;7.830;2023-10-08T04:38:23;5.03;;;2.40;;
2728;SDS011;1372;47.956;7.830;2023-10-08T04:40:53;7.60;;;3.10;;
2728;SDS011;1372;47.956;7.830;2023-10-08T04:43:30;6.60;;;2.33;;
2728;SDS011;1372;47.956;7.830;2023-10-08T04:45:59;6.83;;;3.40;;
2728;SDS011;1372;47.956;7.830;2023-10-08T04:48:32;5.23;;;2.83;;
2728;SDS011;1372;47.956;7.830;2023-10-08T04:51:03;3.23;;;2.03;;
2728;SDS011;1372;47.956;7.830;2023-10-08T04:53:33;9.43;;;2.30;;
2728;SDS011;1372;47.956;7.830;2023-10-08T04:56:08;4.23;;;1.70;;
2728;SDS011;1372;47.956;7.830;2023-10-08T04:58:45;9.93;;;3.07;;
2728;SDS011;1372;47.956;7.830;2023-10-08T05:01:15;4.00;;;2.20;;
2728;SDS011;1372;47.956;7.830;2023-10-08T05:03:48;7.13;;;2.43;;
2728;SDS011;1372;47.956;7.830;2023-10-08T05:06:52;6.27;;;2.60;;
2728;SDS011;1372;47.956;7.830;2023-10-08T05:09:55;4.90;;;2.10;;
2728;SDS011;1372;47.956;7.830;2023-10-08T05:12:41;6.70;;;2.40;;
2728;SDS011;1372;47.956;7.830;2023-10-08T05:15:16;6.10;;;2.17;;
2728;SDS011;1372;47.956;7.830;2023-10-08T05:18:00;6.60;;;2.80;;
2728;SDS011;1372;47.956;7.830;2023-10-08T05:20:50;3.97;;;2.43;;
2728;SDS011;1372;47.956;7.830;2023-10-08T05:23:43;10.20;;;4.20;;
2728;SDS011;1372;47.956;7.830;2023-10-08T05:26:39;10.77;;;4.60;;
2728;SDS011;1372;47.956;7.830;2023-10-08T05:29:16;7.60;;;4.40;;
2728;SDS011;1372;47.956;7.830;2023-10-08T05:32:16;10.87;;;4.03;;
2728;SDS011;1372;47.956;7.830;2023-10-08T05:35:13;4.40;;;3.10;;
2728;SDS011;1372;47.956;7.830;2023-10-08T05:37:59;6.97;;;3.20;;
2728;SDS011;1372;47.956;7.830;2023-10-08T05:40:41;9.53;;;4.60;;
2728;SDS011;1372;47.956;7.830;2023-10-08T05:43:30;5.17;;;4.17;;
2728;SDS011;1372;47.956;7.830;2023-10-08T05:46:23;7.93;;;4.73;;
2728;SDS011;1372;47.956;7.830;2023-10-08T05:49:14;7.70;;;4.37;;
2728;SDS011;1372;47.956;7.830;2023-10-08T05:52:05;7.40;;;4.20;;
2728;SDS011;1372;47.956;7.830;2023-10-08T05:54:57;7.97;;;3.27;;
2728;SDS011;1372;47.956;7.830;2023-10-08T05:57:52;6.20;;;3.47;;
2728;SDS011;1372;47.956;7.830;2023-10-08T06:00:33;5.97;;;3.20;;
2728;SDS011;1372;47.956;7.830;2023-10-08T06:03:29;4.50;;;2.77;;
2728;SDS011;1372;47.956;7.830;2023-10-08T06:06:04;6.50;;;2.60;;
2728;SDS011;1372;47.956;7.830;2023-10-08T06:09:06;4.63;;;2.57;;
2728;SDS011;1372;47.956;7.830;2023-10-08T06:12:02;7.30;;;3.20;;
2728;SDS011;1372;47.956;7.830;2023-10-08T06:14:46;5.67;;;2.93;;
2728;SDS011;1372;47.956;7.830;2023-10-08T06:17:35;5.67;;;2.90;;
2728;SDS011;1372;47.956;7.830;2023-10-08T06:20:27;7.73;;;3.23;;
2728;SDS011;1372;47.956;7.830;2023-10-08T06:22:56;6.77;;;3.77;;
2728;SDS011;1372;47.956;7.830;2023-10-08T06:25:33;5.27;;;2.80;;
2728;SDS011;1372;47.956;7.830;2023-10-08T06:28:12;7.40;;;4.33;;
2728;SDS011;1372;47.956;7.830;2023-10-08T06:30:45;8.10;;;2.57;;
2728;SDS011;1372;47.956;7.830;2023-10-08T06:33:16;7.27;;;3.10;;
2728;SDS011;1372;47.956;7.830;2023-10-08T06:35:45;6.63;;;3.23;;
2728;SDS011;1372;47.956;7.830;2023-10-08T06:38:28;8.43;;;2.93;;
2728;SDS011;1372;47.956;7.830;2023-10-08T06:40:58;7.20;;;2.67;;
2728;SDS011;1372;47.956;7.830;2023-10-08T06:43:28;5.80;;;2.77;;
2728;SDS011;1372;47.956;7.830;2023-10-08T06:46:01;10.13;;;3.70;;
2728;SDS011;1372;47.956;7.830;2023-10-08T06:48:32;9.53;;;2.83;;
2728;SDS011;1372;47.956;7.830;2023-10-08T06:51:02;5.00;;;2.90;;
2728;SDS011;1372;47.956;7.830;2023-10-08T06:53:41;5.17;;;2.80;;
2728;SDS011;1372;47.956;7.830;2023-10-08T06:56:14;6.20;;;2.53;;
2728;SDS011;1372;47.956;7.830;2023-10-08T06:58:46;8.10;;;3.93;;
2728;SDS011;1372;47.956;7.830;2023-10-08T07:01:16;8.57;;;2.63;;
2728;SDS011;1372;47.956;7.830;2023-10-08T07:03:49;8.00;;;3.20;;
2728;SDS011;1372;47.956;7.830;2023-10-08T07:06:19;3.73;;;2.90;;
2728;SDS011;1372;47.956;7.830;2023-10-08T07:08:58;7.27;;;3.40;;
2728;SDS011;1372;47.956;7.830;2023-10-08T07:11:32;5.90;;;2.97;;
2728;SDS011;1372;47.956;7.830;2023-10-08T07:14:02;6.70;;;2.87;;
2728;SDS011;1372;47.956;7.830;2023-10-08T07:16:34;3.70;;;2.50;;
2728;SDS011;1372;47.956;7.830;2023-10-08T07:19:04;5.50;;;2.83;;
2728;SDS011;1372;47.956;7.830;2023-10-08T07:21:42;6.67;;;3.43;;
2728;SDS011;1372;47.956;7.830;2023-10-08T07:24:13;8.60;;;2.90;;
2728;SDS011;1372;47.956;7.830;2023-10-08T07:26:48;4.30;;;2.40;;
2728;SDS011;1372;47.956;7.830;2023-10-08T07:29:23;6.90;;;3.07;;
2728;SDS011;1372;47.956;7.830;2023-10-08T07:31:53;7.73;;;3.40;;
2728;SDS011;1372;47.956;7.830;2023-10-08T07:34:24;6.50;;;2.70;;
2728;SDS011;1372;47.956;7.830;2023-10-08T07:36:58;7.73;;;3.27;;
2728;SDS011;1372;47.956;7.830;2023-10-08T07:39:32;7.53;;;3.40;;
2728;SDS011;1372;47.956;7.830;2023-10-08T07:42:02;7.20;;;3.20;;
2728;SDS011;1372;47.956;7.830;2023-10-08T07:44:34;9.43;;;4.60;;
2728;SDS011;1372;47.956;7.830;2023-10-08T07:47:06;7.27;;;3.30;;
2728;SDS011;1372;47.956;7.830;2023-10-08T07:49:42;13.73;;;3.00;;
2728;SDS011;1372;47.956;7.830;2023-10-08T07:52:11;7.10;;;2.97;;
2728;SDS011;1372;47.956;7.830;2023-10-08T07:54:43;5.80;;;3.00;;
2728;SDS011;1372;47.956;7.830;2023-10-08T07:57:13;7.70;;;3.73;;
2728;SDS011;1372;47.956;7.830;2023-10-08T07:59:48;11.87;;;4.50;;
2728;SDS011;1372;47.956;7.830;2023-10-08T08:02:24;10.63;;;3.40;;
2728;SDS011;1372;47.956;7.830;2023-10-08T08:04:55;4.30;;;2.20;;
2728;SDS011;1372;47.956;7.830;2023-10-08T08:07:24;7.63;;;3.13;;
2728;SDS011;1372;47.956;7.830;2023-10-08T08:09:56;8.97;;;3.80;;
2728;SDS011;1372;47.956;7.830;2023-10-08T08:12:26;5.77;;;3.70;;
2728;SDS011;1372;47.956;7.830;2023-10-08T08:14:59;6.47;;;3.27;;
2728;SDS011;1372;47.956;7.830;2023-10-08T08:17:30;7.73;;;3.03;;
2728;SDS011;1372;47.956;7.830;2023-10-08T08:20:01;5.93;;;2.93;;
2728;SDS011;1372;47.956;7.830;2023-10-08T08:22:44;8.03;;;3.30;;
2728;SDS011;1372;47.956;7.830;2023-10-08T08:25:17;4.83;;;2.77;;
2728;SDS011;1372;47.956;7.830;2023-10-08T08:28:02;6.37;;;2.67;;
2728;SDS011;1372;47.956;7.830;2023-10-08T08:30:34;6.17;;;2.80;;
2728;SDS011;1372;47.956;7.830;2023-10-08T08:33:04;8.17;;;3.13;;
2728;SDS011;1372;47.956;7.830;2023-10-08T08:35:39;7.57;;;3.00;;
2728;SDS011;1372;47.956;7.830;2023-10-08T08:38:08;6.07;;;2.67;;
2728;SDS011;1372;47.956;7.830;2023-10-08T08:40:39;5.13;;;2.50;;
2728;SDS011;1372;47.956;7.830;2023-10-08T08:43:07;7.27;;;3.23;;
2728;SDS011;1372;47.956;7.830;2023-10-08T08:45:38;9.70;;;4.30;;
2728;SDS011;1372;47.956;7.830;2023-10-08T08:48:10;5.20;;;3.00;;
2728;SDS011;1372;47.956;7.830;2023-10-08T08:50:42;6.70;;;2.57;;
2728;SDS011;1372;47.956;7.830;2023-10-08T08:53:14;7.77;;;2.97;;
2728;SDS011;1372;47.956;7.830;2023-10-08T08:55:45;8.57;;;3.70;;
2728;SDS011;1372;47.956;7.830;2023-10-08T08:58:15;6.07;;;3.33;;
2728;SDS011;1372;47.956;7.830;2023-10-08T09:00:45;7.40;;;3.33;;
2728;SDS011;1372;47.956;7.830;2023-10-08T09:03:17;6.07;;;4.00;;
2728;SDS011;1372;47.956;7.830;2023-10-08T09:05:48;6.70;;;3.93;;
2728;SDS011;1372;47.956;7.830;2023-10-08T09:08:18;4.63;;;2.80;;
2728;SDS011;1372;47.956;7.830;2023-10-08T09:10:50;8.83;;;3.03;;
2728;SDS011;1372;47.956;7.830;2023-10-08T09:13:19;10.57;;;4.10;;
2728;SDS011;1372;47.956;7.830;2023-10-08T09:15:49;6.90;;;4.20;;
2728;SDS011;1372;47.956;7.830;2023-10-08T09:18:24;11.77;;;4.10;;
2728;SDS011;1372;47.956;7.830;2023-10-08T09:20:56;8.70;;;3.63;;
2728;SDS011;1372;47.956;7.830;2023-10-08T09:23:25;6.50;;;4.43;;
2728;SDS011;1372;47.956;7.830;2023-10-08T09:25:53;5.93;;;2.90;;
2728;SDS011;1372;47.956;7.830;2023-10-08T09:28:30;8.00;;;3.17;;
2728;SDS011;1372;47.956;7.830;2023-10-08T09:31:01;6.67;;;3.33;;
2728;SDS011;1372;47.956;7.830;2023-10-08T09:33:31;8.20;;;3.93;;
2728;SDS011;1372;47.956;7.830;2023-10-08T09:36:03;5.10;;;3.37;;
2728;SDS011;1372;47.956;7.830;2023-10-08T09:38:34;9.07;;;3.67;;
2728;SDS011;1372;47.956;7.830;2023-10-08T09:41:03;10.33;;;3.70;;
2728;SDS011;1372;47.956;7.830;2023-10-08T09:43:35;6.27;;;2.83;;
2728;SDS011;1372;47.956;7.830;2023-10-08T09:46:08;5.10;;;3.73;;
2728;SDS011;1372;47.956;7.830;2023-10-08T09:48:44;9.07;;;4.10;;
2728;SDS011;1372;47.956;7.830;2023-10-08T09:51:21;6.10;;;3.53;;
2728;SDS011;1372;47.956;7.830;2023-10-08T09:54:05;6.20;;;2.97;;
2728;SDS011;1372;47.956;7.830;2023-10-08T09:56:41;7.47;;;3.93;;
2728;SDS011;1372;47.956;7.830;2023-10-08T09:59:11;10.07;;;3.10;;
2728;SDS011;1372;47.956;7.830;2023-10-08T10:01:42;9.43;;;4.30;;
2728;SDS011;1372;47.956;7.830;2023-10-08T10:04:21;9.70;;;6.90;;
2728;SDS011;1372;47.956;7.830;2023-10-08T10:06:57;11.20;;;4.03;;
2728;SDS011;1372;47.956;7.830;2023-10-08T10:09:26;10.43;;;4.20;;
2728;SDS011;1372;47.956;7.830;2023-10-08T10:11:55;7.23;;;3.27;;
2728;SDS011;1372;47.956;7.830;2023-10-08T10:14:26;11.17;;;5.70;;
2728;SDS011;1372;47.956;7.830;2023-10-08T10:17:13;7.90;;;4.30;;
2728;SDS011;1372;47.956;7.830;2023-10-08T10:19:59;10.50;;;4.23;;
2728;SDS011;1372;47.956;7.830;2023-10-08T10:22:34;9.03;;;4.93;;
2728;SDS011;1372;47.956;7.830;2023-10-08T10:25:04;8.00;;;3.40;;
2728;SDS011;1372;47.956;7.830;2023-10-08T10:30:50;7.00;;;3.37;;
2728;SDS011;1372;47.956;7.830;2023-10-08T10:33:20;10.50;;;3.53;;
2728;SDS011;1372;47.956;7.830;2023-10-08T10:35:51;9.93;;;3.40;;
2728;SDS011;1372;47.956;7.830;2023-10-08T10:38:22;7.17;;;2.90;;
2728;SDS011;1372;47.956;7.830;2023-10-08T10:40:53;8.77;;;2.97;;
2728;SDS011;1372;47.956;7.830;2023-10-08T10:43:24;8.10;;;3.90;;
2728;SDS011;1372;47.956;7.830;2023-10-08T10:45:59;10.80;;;4.23;;
2728;SDS011;1372;47.956;7.830;2023-10-08T10:48:53;9.23;;;3.70;;
2728;SDS011;1372;47.956;7.830;2023-10-08T10:51:35;8.70;;;3.03;;
2728;SDS011;1372;47.956;7.830;2023-10-08T10:54:09;7.63;;;3.70;;
2728;SDS011;1372;47.956;7.830;2023-10-08T10:56:39;7.20;;;3.70;;
2728;SDS011;1372;47.956;7.830;2023-10-08T10:59:10;9.87;;;3.90;;
2728;SDS011;1372;47.956;7.830;2023-10-08T11:01:46;7.07;;;4.03;;
2728;SDS011;1372;47.956;7.830;2023-10-08T11:04:19;7.17;;;3.33;;
2728;SDS011;1372;47.956;7.830;2023-10-08T11:06:56;11.20;;;4.30;;
2728;SDS011;1372;47.956;7.830;2023-10-08T11:09:29;7.97;;;4.13;;
2728;SDS011;1372;47.956;7.830;2023-10-08T11:12:06;9.30;;;4.20;;
2728;SDS011;1372;47.956;7.830;2023-10-08T11:14:39;10.33;;;4.03;;
2728;SDS011;1372;47.956;7.830;2023-10-08T11:17:12;9.00;;;3.53;;
2728;SDS011;1372;47.956;7.830;2023-10-08T11:19:47;11.67;;;3.77;;
2728;SDS011;1372;47.956;7.830;2023-10-08T11:22:17;8.27;;;3.90;;
2728;SDS011;1372;47.956;7.830;2023-10-08T11:24:51;8.43;;;4.20;;
2728;SDS011;1372;47.956;7.830;2023-10-08T11:27:22;10.20;;;3.87;;
2728;SDS011;1372;47.956;7.830;2023-10-08T11:29:57;5.50;;;3.87;;
2728;SDS011;1372;47.956;7.830;2023-10-08T11:32:27;8.70;;;3.83;;
2728;SDS011;1372;47.956;7.830;2023-10-08T11:34:59;7.63;;;3.77;;
2728;SDS011;1372;47.956;7.830;2023-10-08T11:37:44;8.77;;;3.33;;
2728;SDS011;1372;47.956;7.830;2023-10-08T11:40:25;8.07;;;3.73;;
2728;SDS011;1372;47.956;7.830;2023-10-08T11:42:56;9.30;;;3.70;;
2728;SDS011;1372;47.956;7.830;2023-10-08T11:45:26;7.87;;;3.87;;
2728;SDS011;1372;47.956;7.830;2023-10-08T11:48:05;6.33;;;3.10;;
2728;SDS011;1372;47.956;7.830;2023-10-08T11:50:39;6.20;;;3.57;;
2728;SDS011;1372;47.956;7.830;2023-10-08T11:53:08;7.80;;;3.50;;
2728;SDS011;1372;47.956;7.830;2023-10-08T11:55:40;10.20;;;3.17;;
2728;SDS011;1372;47.956;7.830;2023-10-08T11:58:09;7.50;;;3.37;;
2728;SDS011;1372;47.956;7.830;2023-10-08T12:00:39;10.37;;;4.20;;
2728;SDS011;1372;47.956;7.830;2023-10-08T12:03:13;7.80;;;3.47;;
2728;SDS011;1372;47.956;7.830;2023-10-08T12:05:45;10.63;;;3.40;;
2728;SDS011;1372;47.956;7.830;2023-10-08T12:08:19;7.10;;;3.07;;
2728;SDS011;1372;47.956;7.830;2023-10-08T12:10:50;6.90;;;3.50;;
2728;SDS011;1372;47.956;7.830;2023-10-08T12:13:21;8.70;;;3.90;;
2728;SDS011;1372;47.956;7.830;2023-10-08T12:15:52;9.23;;;3.40;;
2728;SDS011;1372;47.956;7.830;2023-10-08T12:18:35;7.20;;;3.40;;
2728;SDS011;1372;47.956;7.830;2023-10-08T12:21:07;8.67;;;3.73;;
2728;SDS011;1372;47.956;7.830;2023-10-08T12:23:37;9.53;;;4.30;;
2728;SDS011;1372;47.956;7.830;2023-10-08T12:26:11;11.80;;;4.70;;
2728;SDS011;1372;47.956;7.830;2023-10-08T12:28:44;10.27;;;3.80;;
2728;SDS011;1372;47.956;7.830;2023-10-08T12:31:20;7.27;;;3.50;;
2728;SDS011;1372;47.956;7.830;2023-10-08T12:33:51;8.73;;;3.50;;
2728;SDS011;1372;47.956;7.830;2023-10-08T12:36:24;8.80;;;3.50;;
2728;SDS011;1372;47.956;7.830;2023-10-08T12:38:55;5.67;;;3.87;;
2728;SDS011;1372;47.956;7.830;2023-10-08T12:41:27;11.90;;;4.10;;
2728;SDS011;1372;47.956;7.830;2023-10-08T12:43:55;8.00;;;3.70;;
2728;SDS011;1372;47.956;7.830;2023-10-08T12:46:31;6.97;;;3.50;;
2728;SDS011;1372;47.956;7.830;2023-10-08T12:49:03;7.97;;;4.40;;
2728;SDS011;1372;47.956;7.830;2023-10-08T12:51:34;7.47;;;2.93;;
2728;SDS011;1372;47.956;7.830;2023-10-08T12:54:08;7.00;;;3.67;;
2728;SDS011;1372;47.956;7.830;2023-10-08T12:56:42;8.10;;;3.07;;
2728;SDS011;1372;47.956;7.830;2023-10-08T12:59:15;8.43;;;3.30;;
2728;SDS011;1372;47.956;7.830;2023-10-08T13:01:49;6.40;;;3.40;;
2728;SDS011;1372;47.956;7.830;2023-10-08T13:04:21;10.97;;;3.20;;
2728;SDS011;1372;47.956;7.830;2023-10-08T13:06:55;7.30;;;3.30;;
2728;SDS011;1372;47.956;7.830;2023-10-08T13:09:28;6.63;;;2.70;;
2728;SDS011;1372;47.956;7.830;2023-10-08T13:12:00;6.90;;;3.50;;
2728;SDS011;1372;47.956;7.830;2023-10-08T13:14:29;8.23;;;3.60;;
2728;SDS011;1372;47.956;7.830;2023-10-08T13:17:02;4.27;;;2.70;;
2728;SDS011;1372;47.956;7.830;2023-10-08T13:19:31;7.13;;;3.23;;
2728;SDS011;1372;47.956;7.830;2023-10-08T13:22:01;8.47;;;3.93;;
2728;SDS011;1372;47.956;7.830;2023-10-08T13:24:33;8.17;;;3.67;;
2728;SDS011;1372;47.956;7.830;2023-10-08T13:27:04;10.60;;;4.53;;
2728;SDS011;1372;47.956;7.830;2023-10-08T13:29:34;6.70;;;3.00;;
2728;SDS011;1372;47.956;7.830;2023-10-08T13:32:05;9.00;;;3.70;;
2728;SDS011;1372;47.956;7.830;2023-10-08T13:34:40;5.20;;;2.80;;
2728;SDS011;1372;47.956;7.830;2023-10-08T13:37:09;5.87;;;3.33;;
2728;SDS011;1372;47.956;7.830;2023-10-08T13:39:41;14.30;;;3.70;;
2728;SDS011;1372;47.956;7.830;2023-10-08T13:42:12;7.93;;;3.30;;
2728;SDS011;1372;47.956;7.830;2023-10-08T13:44:46;5.63;;;2.70;;
2728;SDS011;1372;47.956;7.830;2023-10-08T13:47:15;11.13;;;3.70;;
2728;SDS011;1372;47.956;7.830;2023-10-08T13:49:49;13.10;;;3.70;;
2728;SDS011;1372;47.956;7.830;2023-10-08T13:52:19;11.20;;;3.30;;
2728;SDS011;1372;47.956;7.830;2023-10-08T13:54:52;9.87;;;3.10;;
2728;SDS011;1372;47.956;7.830;2023-10-08T13:57:23;6.63;;;2.70;;
2728;SDS011;1372;47.956;7.830;2023-10-08T13:59:53;7.47;;;2.80;;
2728;SDS011;1372;47.956;7.830;2023-10-08T14:02:23;7.80;;;3.30;;
2728;SDS011;1372;47.956;7.830;2023-10-08T14:04:54;10.90;;;3.53;;
2728;SDS011;1372;47.956;7.830;2023-10-08T14:07:25;6.80;;;2.73;;
2728;SDS011;1372;47.956;7.830;2023-10-08T14:09:56;19.90;;;4.10;;
2728;SDS011;1372;47.956;7.830;2023-10-08T14:12:31;9.50;;;3.67;;
2728;SDS011;1372;47.956;7.830;2023-10-08T14:15:04;7.10;;;3.10;;
2728;SDS011;1372;47.956;7.830;2023-10-08T14:17:41;11.90;;;3.80;;
2728;SDS011;1372;47.956;7.830;2023-10-08T14:20:11;11.40;;;3.53;;
2728;SDS011;1372;47.956;7.830;2023-10-08T14:22:40;13.63;;;3.67;;
2728;SDS011;1372;47.956;7.830;2023-10-08T14:25:10;6.17;;;3.17;;
2728;SDS011;1372;47.956;7.830;2023-10-08T14:27:43;12.60;;;3.60;;
2728;SDS011;1372;47.956;7.830;2023-10-08T14:30:18;9.40;;;4.17;;
2728;SDS011;1372;47.956;7.830;2023-10-08T14:32:53;11.67;;;4.57;;
2728;SDS011;1372;47.956;7.830;2023-10-08T14:35:24;10.13;;;3.40;;
2728;SDS011;1372;47.956;7.830;2023-10-08T14:38:18;10.57;;;3.30;;
2728;SDS011;1372;47.956;7.830;2023-10-08T14:41:07;13.43;;;4.00;;
2728;SDS011;1372;47.956;7.830;2023-10-08T14:43:58;13.63;;;4.23;;
2728;SDS011;1372;47.956;7.830;2023-10-08T14:46:27;15.10;;;3.50;;
2728;SDS011;1372;47.956;7.830;2023-10-08T14:49:03;7.60;;;2.70;;
2728;SDS011;1372;47.956;7.830;2023-10-08T14:51:37;11.83;;;3.47;;
2728;SDS011;1372;47.956;7.830;2023-10-08T14:54:08;10.03;;;4.13;;
2728;SDS011;1372;47.956;7.830;2023-10-08T14:56:38;10.93;;;3.53;;
2728;SDS011;1372;47.956;7.830;2023-10-08T14:59:11;11.00;;;3.60;;
2728;SDS011;1372;47.956;7.830;2023-10-08T15:01:43;13.90;;;2.90;;
2728;SDS011;1372;47.956;7.830;2023-10-08T15:04:16;8.63;;;2.80;;
2728;SDS011;1372;47.956;7.830;2023-10-08T15:06:49;9.60;;;3.90;;
2728;SDS011;1372;47.956;7.830;2023-10-08T15:09:18;11.63;;;4.67;;
2728;SDS011;1372;47.956;7.830;2023-10-08T15:11:48;7.77;;;3.20;;
2728;SDS011;1372;47.956;7.830;2023-10-08T15:14:19;15.43;;;3.67;;
2728;SDS011;1372;47.956;7.830;2023-10-08T15:16:50;14.03;;;4.30;;
2728;SDS011;1372;47.956;7.830;2023-10-08T15:19:20;17.13;;;5.70;;
2728;SDS011;1372;47.956;7.830;2023-10-08T15:21:50;11.40;;;4.87;;
2728;SDS011;1372;47.956;7.830;2023-10-08T15:24:20;13.20;;;4.57;;
2728;SDS011;1372;47.956;7.830;2023-10-08T15:26:50;9.70;;;3.47;;
2728;SDS011;1372;47.956;7.830;2023-10-08T15:29:22;5.90;;;3.20;;
2728;SDS011;1372;47.956;7.830;2023-10-08T15:31:53;11.80;;;4.93;;
2728;SDS011;1372;47.956;7.830;2023-10-08T15:34:23;9.87;;;4.23;;
2728;SDS011;1372;47.956;7.830;2023-10-08T15:37:02;10.57;;;3.80;;
2728;SDS011;1372;47.956;7.830;2023-10-08T15:39:31;13.83;;;3.80;;
2728;SDS011;1372;47.956;7.830;2023-10-08T15:42:01;13.00;;;3.70;;
2728;SDS011;1372;47.956;7.830;2023-10-08T15:44:32;11.17;;;3.67;;
2728;SDS011;1372;47.956;7.830;2023-10-08T15:47:02;11.10;;;3.90;;
2728;SDS011;1372;47.956;7.830;2023-10-08T15:49:31;14.47;;;4.90;;
2728;SDS011;1372;47.956;7.830;2023-10-08T15:52:00;8.80;;;4.07;;
2728;SDS011;1372;47.956;7.830;2023-10-08T15:54:31;10.73;;;4.60;;
2728;SDS011;1372;47.956;7.830;2023-10-08T15:57:01;8.60;;;3.73;;
2728;SDS011;1372;47.956;7.830;2023-10-08T15:59:34;10.23;;;4.40;;